createdAt,value
2022-10-18T00:00:19.974Z,3.20
2022-10-18T00:02:46.951Z,2.63
2022-10-18T00:05:13.971Z,2.80
2022-10-18T00:07:40.871Z,3.13
2022-10-18T00:10:08.576Z,2.97
2022-10-18T00:12:36.734Z,2.70
2022-10-18T00:15:06.221Z,2.90
2022-10-18T00:17:35.567Z,2.90
2022-10-18T00:20:02.572Z,3.23
2022-10-18T00:22:29.781Z,3.27
2022-10-18T00:24:57.043Z,2.73
2022-10-18T00:27:23.984Z,2.73
2022-10-18T00:29:53.446Z,3.73
2022-10-18T00:32:20.656Z,4.47
2022-10-18T00:34:47.768Z,2.93
2022-10-18T00:37:14.910Z,2.73
2022-10-18T00:39:42.076Z,2.77
2022-10-18T00:42:16.360Z,3.00
2022-10-18T00:44:43.363Z,2.40
2022-10-18T00:47:12.774Z,2.70
2022-10-18T00:49:46.244Z,3.10
2022-10-18T00:52:45.546Z,2.77
2022-10-18T00:55:13.684Z,2.70
2022-10-18T00:57:43.252Z,2.93
2022-10-18T01:00:10.888Z,2.77
2022-10-18T01:02:39.979Z,3.23
2022-10-18T01:05:07.581Z,3.00
2022-10-18T01:08:04.247Z,2.60
2022-10-18T01:10:35.257Z,2.83
2022-10-18T01:13:39.508Z,2.73
2022-10-18T01:16:22.997Z,3.10
2022-10-18T01:18:55.367Z,2.73
2022-10-18T01:21:37.789Z,3.10
2022-10-18T01:24:24.035Z,2.97
2022-10-18T01:27:16.962Z,3.43
2022-10-18T01:30:02.331Z,3.10
2022-10-18T01:32:34.993Z,3.00
2022-10-18T01:35:10.303Z,3.07
2022-10-18T01:37:38.644Z,2.90
2022-10-18T01:40:07.793Z,3.20
2022-10-18T01:42:35.250Z,3.47
2022-10-18T01:45:04.288Z,3.07
2022-10-18T01:47:31.671Z,3.20
2022-10-18T01:50:00.622Z,3.10
2022-10-18T01:52:27.820Z,3.07
2022-10-18T01:54:56.157Z,3.90
2022-10-18T01:57:40.952Z,3.13
2022-10-18T02:00:19.207Z,3.40
2022-10-18T02:03:04.009Z,3.10
2022-10-18T02:05:42.313Z,3.93
2022-10-18T02:08:30.526Z,3.13
2022-10-18T02:11:05.394Z,3.47
2022-10-18T02:13:53.805Z,3.20
2022-10-18T02:16:43.371Z,3.53
2022-10-18T02:19:20.395Z,3.50
2022-10-18T02:21:48.531Z,3.30
2022-10-18T02:24:17.939Z,3.43
2022-10-18T02:26:45.008Z,3.50
2022-10-18T02:29:12.357Z,3.40
2022-10-18T02:31:45.058Z,3.40
2022-10-18T02:34:37.314Z,3.40
2022-10-18T02:37:05.155Z,3.13
2022-10-18T02:39:35.846Z,3.10
2022-10-18T02:42:06.935Z,2.80
2022-10-18T02:44:34.992Z,2.80
2022-10-18T02:47:02.592Z,3.30
2022-10-18T02:49:29.719Z,2.90
2022-10-18T02:51:56.762Z,2.80
2022-10-18T02:54:24.160Z,3.20
2022-10-18T02:56:51.348Z,3.20
2022-10-18T02:59:18.335Z,3.00
2022-10-18T03:01:45.284Z,2.90
2022-10-18T03:04:12.315Z,3.07
2022-10-18T03:06:39.262Z,2.93
2022-10-18T03:09:06.872Z,3.10
2022-10-18T03:11:33.838Z,4.37
2022-10-18T03:14:00.824Z,3.20
2022-10-18T03:16:28.015Z,3.17
2022-10-18T03:18:54.902Z,2.77
2022-10-18T03:21:21.807Z,3.10
2022-10-18T03:23:48.762Z,2.90
2022-10-18T03:26:15.915Z,3.03
2022-10-18T03:28:42.970Z,2.70
2022-10-18T03:31:09.935Z,2.80
2022-10-18T03:33:36.885Z,3.87
2022-10-18T03:36:03.965Z,3.07
2022-10-18T03:38:31.273Z,3.03
2022-10-18T03:40:58.298Z,3.27
2022-10-18T03:43:25.225Z,3.10
2022-10-18T03:45:52.334Z,3.37
2022-10-18T03:48:22.456Z,3.73
2022-10-18T03:50:49.345Z,3.30
2022-10-18T03:53:16.362Z,3.77
2022-10-18T03:55:43.423Z,3.50
2022-10-18T03:58:10.464Z,3.93
2022-10-18T04:00:37.415Z,3.20
2022-10-18T04:03:04.378Z,3.77
2022-10-18T04:05:31.493Z,3.47
2022-10-18T04:07:58.833Z,4.17
2022-10-18T04:10:25.871Z,4.03
2022-10-18T04:12:52.863Z,4.50
2022-10-18T04:15:20.389Z,4.47
2022-10-18T04:17:47.348Z,4.43
2022-10-18T04:20:14.537Z,3.80
2022-10-18T04:22:41.625Z,4.40
2022-10-18T04:25:08.640Z,4.40
2022-10-18T04:27:36.243Z,4.43
2022-10-18T04:30:03.539Z,4.53
2022-10-18T04:32:30.430Z,4.13
2022-10-18T04:34:57.352Z,4.87
2022-10-18T04:37:24.253Z,5.07
2022-10-18T04:39:53.566Z,5.03
2022-10-18T04:42:22.092Z,5.50
2022-10-18T04:44:49.156Z,5.10
2022-10-18T04:47:16.893Z,5.13
2022-10-18T04:49:44.233Z,5.40
2022-10-18T04:52:11.479Z,5.30
2022-10-18T04:54:38.456Z,5.70
2022-10-18T04:57:05.465Z,5.70
2022-10-18T04:59:32.452Z,6.10
2022-10-18T05:01:59.422Z,6.33
2022-10-18T05:04:26.434Z,6.07
2022-10-18T05:06:53.362Z,6.30
2022-10-18T05:09:22.332Z,7.00
2022-10-18T05:11:49.170Z,6.63
2022-10-18T05:14:16.283Z,6.80
2022-10-18T05:16:43.209Z,7.00
2022-10-18T05:19:10.258Z,6.90
2022-10-18T05:21:37.180Z,6.93
2022-10-18T05:24:04.453Z,6.03
2022-10-18T05:26:31.375Z,6.50
2022-10-18T05:28:58.566Z,6.50
2022-10-18T05:31:25.505Z,6.50
2022-10-18T05:33:52.459Z,6.90
2022-10-18T05:36:19.391Z,7.23
2022-10-18T05:38:47.996Z,6.97
2022-10-18T05:41:15.273Z,7.27
2022-10-18T05:43:42.213Z,6.83
2022-10-18T05:46:14.626Z,7.17
2022-10-18T05:48:43.982Z,8.03
2022-10-18T05:51:11.300Z,7.57
2022-10-18T05:53:38.454Z,6.40
2022-10-18T05:56:07.083Z,5.83
2022-10-18T05:58:35.187Z,6.80
2022-10-18T06:01:03.555Z,6.80
2022-10-18T06:03:31.041Z,7.30
2022-10-18T06:06:07.033Z,7.00
2022-10-18T06:08:34.987Z,7.37
2022-10-18T06:11:13.954Z,7.07
2022-10-18T06:13:48.823Z,6.97
2022-10-18T06:16:17.670Z,7.60
2022-10-18T06:18:49.363Z,7.70
2022-10-18T06:21:16.998Z,7.50
2022-10-18T06:23:44.284Z,6.83
2022-10-18T06:26:11.942Z,6.80
2022-10-18T06:28:39.285Z,6.67
2022-10-18T06:31:06.766Z,6.40
2022-10-18T06:33:35.290Z,6.00
2022-10-18T06:36:04.936Z,5.63
2022-10-18T06:38:32.502Z,5.73
2022-10-18T06:40:59.962Z,5.17
2022-10-18T06:43:27.312Z,4.80
2022-10-18T06:45:54.952Z,4.97
2022-10-18T06:48:22.488Z,4.67
2022-10-18T06:50:57.470Z,5.10
2022-10-18T06:53:30.162Z,5.23
2022-10-18T06:56:01.719Z,5.10
2022-10-18T06:58:29.698Z,5.60
2022-10-18T07:00:57.269Z,5.43
2022-10-18T07:03:24.477Z,5.17
2022-10-18T07:05:51.347Z,5.50
2022-10-18T07:08:18.502Z,5.30
2022-10-18T07:10:54.527Z,4.67
2022-10-18T07:13:37.825Z,4.67
2022-10-18T07:16:14.184Z,4.83
2022-10-18T07:18:47.056Z,4.57
2022-10-18T07:21:16.426Z,4.40
2022-10-18T07:23:46.019Z,5.20
2022-10-18T07:26:17.519Z,4.50
2022-10-18T07:28:46.502Z,4.40
2022-10-18T07:31:14.086Z,4.60
2022-10-18T07:33:43.000Z,4.30
2022-10-18T07:36:11.554Z,3.97
2022-10-18T07:38:38.945Z,3.60
2022-10-18T07:41:07.573Z,3.50
2022-10-18T07:43:35.403Z,3.37
2022-10-18T07:46:05.657Z,3.80
2022-10-18T07:48:32.885Z,3.20
2022-10-18T07:51:01.125Z,2.80
2022-10-18T07:53:29.458Z,2.90
2022-10-18T07:56:03.451Z,3.37
2022-10-18T07:58:35.873Z,2.90
2022-10-18T08:01:05.452Z,2.83
2022-10-18T08:03:32.861Z,2.60
2022-10-18T08:05:59.879Z,2.90
2022-10-18T08:08:27.003Z,2.70
2022-10-18T08:10:54.372Z,3.23
2022-10-18T08:13:21.308Z,2.37
2022-10-18T08:15:48.280Z,3.10
2022-10-18T08:18:15.293Z,3.57
2022-10-18T08:20:46.851Z,3.07
2022-10-18T08:23:13.770Z,2.93
2022-10-18T08:25:40.794Z,2.90
2022-10-18T08:28:07.919Z,3.17
2022-10-18T08:30:35.859Z,3.40
2022-10-18T08:33:03.375Z,3.00
2022-10-18T08:35:31.819Z,2.70
2022-10-18T08:37:59.419Z,2.80
2022-10-18T08:40:27.660Z,3.00
2022-10-18T08:43:03.499Z,3.00
2022-10-18T08:45:47.924Z,2.90
2022-10-18T08:48:29.109Z,2.80
2022-10-18T08:50:57.287Z,2.77
2022-10-18T08:53:40.467Z,2.77
2022-10-18T08:56:14.688Z,2.53
2022-10-18T08:58:46.799Z,2.80
2022-10-18T09:04:37.389Z,2.93
2022-10-18T09:07:41.495Z,2.80
2022-10-18T09:10:39.499Z,3.07
2022-10-18T09:13:50.765Z,2.47
2022-10-18T09:16:32.020Z,2.55
2022-10-18T09:19:07.022Z,2.72
2022-10-18T09:21:42.571Z,2.70
2022-10-18T09:24:26.817Z,2.90
2022-10-18T09:27:14.413Z,2.30
2022-10-18T09:29:49.084Z,2.50
2022-10-18T09:32:36.189Z,2.35
2022-10-18T09:35:17.000Z,2.65
2022-10-18T09:37:44.756Z,2.60
2022-10-18T09:40:28.982Z,2.78
2022-10-18T09:43:05.866Z,2.70
2022-10-18T09:45:39.508Z,2.75
2022-10-18T09:48:06.638Z,2.60
2022-10-18T09:50:48.649Z,2.60
2022-10-18T09:53:18.568Z,2.35
2022-10-18T09:55:58.494Z,2.90
2022-10-18T09:58:31.521Z,2.47
2022-10-18T10:00:58.755Z,2.35
2022-10-18T10:03:25.926Z,2.60
2022-10-18T10:06:17.668Z,2.10
2022-10-18T10:08:49.134Z,2.17
2022-10-18T10:11:32.015Z,2.50
2022-10-18T10:14:19.481Z,3.15
2022-10-18T10:17:05.811Z,3.10
2022-10-18T10:19:38.021Z,2.20
2022-10-18T10:22:13.136Z,2.17
2022-10-18T10:24:58.318Z,2.40
2022-10-18T10:27:30.352Z,2.70
2022-10-18T10:30:04.239Z,2.42
2022-10-18T10:32:47.302Z,2.10
2022-10-18T10:35:52.664Z,2.40
2022-10-18T10:38:28.654Z,2.47
2022-10-18T10:40:56.316Z,2.55
2022-10-18T10:43:37.703Z,3.20
2022-10-18T10:46:06.024Z,2.70
2022-10-18T10:48:41.520Z,2.58
2022-10-18T10:51:10.994Z,2.47
2022-10-18T10:53:46.075Z,2.10
2022-10-18T10:56:27.827Z,2.15
2022-10-18T10:58:58.165Z,2.45
2022-10-18T11:01:31.112Z,2.35
2022-10-18T11:04:04.837Z,2.65
2022-10-18T11:06:44.902Z,2.17
2022-10-18T11:09:40.773Z,2.38
2022-10-18T11:12:33.127Z,2.47
2022-10-18T11:15:11.915Z,2.72
2022-10-18T11:20:27.213Z,2.40
2022-10-18T11:22:54.129Z,2.45
2022-10-18T11:25:24.972Z,2.10
2022-10-18T11:28:03.266Z,2.45
2022-10-18T11:30:49.844Z,2.25
2022-10-18T11:33:56.406Z,2.20
2022-10-18T11:36:26.385Z,2.38
2022-10-18T11:38:56.612Z,1.88
2022-10-18T11:41:40.614Z,1.13
2022-10-18T11:44:16.397Z,1.40
2022-10-18T11:47:07.616Z,1.55
2022-10-18T11:50:06.912Z,1.38
2022-10-18T11:52:50.445Z,1.50
2022-10-18T11:55:20.197Z,2.13
2022-10-18T11:57:51.669Z,1.70
2022-10-18T12:03:29.318Z,1.67
2022-10-18T12:06:01.052Z,1.35
2022-10-18T12:08:49.140Z,1.45
2022-10-18T12:11:24.022Z,1.73
2022-10-18T12:13:57.862Z,1.50
2022-10-18T12:16:49.500Z,1.20
2022-10-18T12:19:28.410Z,1.83
2022-10-18T12:22:12.585Z,1.67
2022-10-18T12:24:40.121Z,1.73
2022-10-18T12:27:11.755Z,1.83
2022-10-18T12:29:51.554Z,1.75
2022-10-18T12:32:27.166Z,1.27
2022-10-18T12:35:09.984Z,1.55
2022-10-18T12:37:46.005Z,1.40
2022-10-18T12:40:40.210Z,1.42
2022-10-18T12:43:36.916Z,1.70
2022-10-18T12:46:12.274Z,1.70
2022-10-18T12:48:45.417Z,1.65
2022-10-18T12:51:18.296Z,1.42
2022-10-18T12:54:07.156Z,1.50
2022-10-18T12:56:44.228Z,1.75
2022-10-18T12:59:17.080Z,1.58
2022-10-18T13:01:53.322Z,1.50
2022-10-18T13:04:32.580Z,1.98
2022-10-18T13:07:08.319Z,2.10
2022-10-18T13:09:37.103Z,1.42
2022-10-18T13:12:10.206Z,1.50
2022-10-18T13:15:24.041Z,1.70
2022-10-18T13:18:17.488Z,2.08
2022-10-18T13:20:53.461Z,1.85
2022-10-18T13:23:39.221Z,1.42
2022-10-18T13:26:15.472Z,1.75
2022-10-18T13:28:51.484Z,1.75
2022-10-18T13:31:40.112Z,1.50
2022-10-18T13:34:23.126Z,1.38
2022-10-18T13:37:10.347Z,1.65
2022-10-18T13:39:39.682Z,1.75
2022-10-18T13:42:15.834Z,1.70
2022-10-18T13:44:44.788Z,1.35
2022-10-18T13:47:14.349Z,1.50
2022-10-18T13:53:37.592Z,1.60
2022-10-18T13:56:20.703Z,1.58
2022-10-18T13:59:26.160Z,1.92
2022-10-18T14:02:13.874Z,1.50
2022-10-18T14:05:16.600Z,1.83
2022-10-18T14:07:48.942Z,1.58
2022-10-18T14:11:00.864Z,1.65
2022-10-18T14:13:36.653Z,1.60
2022-10-18T14:16:26.783Z,1.70
2022-10-18T14:19:00.913Z,1.70
2022-10-18T14:21:34.890Z,2.00
2022-10-18T14:24:02.769Z,1.80
2022-10-18T14:26:29.839Z,1.90
2022-10-18T14:29:07.902Z,2.05
2022-10-18T14:31:35.189Z,1.67
2022-10-18T14:34:03.467Z,1.77
2022-10-18T14:36:39.711Z,1.80
2022-10-18T14:39:17.016Z,1.80
2022-10-18T14:41:55.456Z,2.03
2022-10-18T14:44:29.335Z,1.80
2022-10-18T14:47:03.615Z,1.63
2022-10-18T14:49:31.117Z,1.92
2022-10-18T14:52:00.317Z,2.10
2022-10-18T14:54:33.006Z,2.00
2022-10-18T14:57:01.249Z,1.95
2022-10-18T14:59:30.608Z,2.15
2022-10-18T15:02:05.128Z,2.10
2022-10-18T15:04:34.832Z,1.70
2022-10-18T15:07:04.103Z,1.98
2022-10-18T15:09:34.287Z,2.22
2022-10-18T15:12:04.957Z,2.17
2022-10-18T15:14:32.175Z,2.30
2022-10-18T15:17:04.618Z,1.75
2022-10-18T15:19:35.184Z,1.60
2022-10-18T15:25:15.266Z,1.80
2022-10-18T15:28:04.259Z,1.90
2022-10-18T15:30:39.479Z,1.88
2022-10-18T15:33:09.825Z,1.70
2022-10-18T15:35:38.758Z,1.83
2022-10-18T15:38:20.939Z,1.60
2022-10-18T15:40:48.373Z,1.80
2022-10-18T15:43:24.453Z,1.98
2022-10-18T15:46:00.125Z,1.80
2022-10-18T15:48:38.115Z,1.55
2022-10-18T15:51:18.809Z,1.95
2022-10-18T15:53:52.808Z,1.70
2022-10-18T15:56:36.862Z,1.58
2022-10-18T15:59:06.840Z,1.50
2022-10-18T16:01:42.779Z,1.90
2022-10-18T16:04:29.061Z,2.10
2022-10-18T16:06:57.137Z,1.60
2022-10-18T16:09:26.871Z,1.83
2022-10-18T16:11:56.978Z,2.10
2022-10-18T16:14:25.927Z,1.90
2022-10-18T16:17:03.219Z,1.65
2022-10-18T16:19:32.039Z,1.60
2022-10-18T16:22:05.135Z,2.05
2022-10-18T16:24:33.482Z,2.05
2022-10-18T16:27:00.393Z,1.88
2022-10-18T16:29:31.966Z,1.70
2022-10-18T16:31:59.905Z,2.22
2022-10-18T16:34:27.489Z,2.13
2022-10-18T16:36:54.949Z,1.75
2022-10-18T16:39:22.955Z,2.00
2022-10-18T16:41:51.611Z,2.00
2022-10-18T16:44:19.276Z,2.00
2022-10-18T16:46:49.890Z,2.23
2022-10-18T16:49:25.589Z,2.00
2022-10-18T16:51:53.823Z,2.03
2022-10-18T16:54:20.867Z,2.50
2022-10-18T16:56:49.940Z,1.90
2022-10-18T16:59:31.557Z,2.10
2022-10-18T17:01:58.655Z,2.17
2022-10-18T17:04:25.567Z,1.97
2022-10-18T17:06:57.258Z,1.77
2022-10-18T17:09:24.190Z,2.43
2022-10-18T17:11:51.079Z,2.10
2022-10-18T17:14:18.170Z,2.03
2022-10-18T17:16:47.081Z,2.20
2022-10-18T17:19:17.972Z,2.10
2022-10-18T17:21:44.837Z,2.23
2022-10-18T17:24:11.997Z,2.00
2022-10-18T17:26:38.939Z,2.07
2022-10-18T17:29:08.364Z,2.20
2022-10-18T17:31:35.776Z,2.27
2022-10-18T17:34:03.047Z,2.10
2022-10-18T17:36:31.339Z,2.03
2022-10-18T17:38:58.747Z,2.57
2022-10-18T17:41:26.267Z,2.43
2022-10-18T17:43:53.299Z,2.20
2022-10-18T17:46:20.605Z,2.10
2022-10-18T17:48:47.651Z,2.43
2022-10-18T17:51:16.618Z,2.30
2022-10-18T17:53:44.219Z,2.33
2022-10-18T17:56:11.987Z,2.10
2022-10-18T17:58:39.165Z,2.07
2022-10-18T18:01:20.970Z,2.33
2022-10-18T18:03:47.928Z,2.50
2022-10-18T18:06:20.929Z,2.10
2022-10-18T18:08:49.333Z,2.83
2022-10-18T18:11:17.577Z,2.23
2022-10-18T18:13:44.594Z,1.87
2022-10-18T18:16:11.704Z,1.90
2022-10-18T18:18:38.718Z,2.17
2022-10-18T18:21:05.824Z,2.20
2022-10-18T18:23:32.755Z,2.30
2022-10-18T18:26:00.048Z,2.13
2022-10-18T18:28:27.091Z,1.90
2022-10-18T18:30:54.108Z,2.23
2022-10-18T18:33:21.160Z,2.20
2022-10-18T18:35:58.363Z,1.80
2022-10-18T18:38:26.233Z,2.30
2022-10-18T18:41:08.250Z,1.93
2022-10-18T18:43:36.244Z,2.47
2022-10-18T18:46:03.549Z,2.03
2022-10-18T18:48:33.374Z,2.60
2022-10-18T18:51:00.902Z,2.63
2022-10-18T18:53:29.503Z,2.10
2022-10-18T18:56:05.282Z,2.90
2022-10-18T18:58:33.915Z,2.50
2022-10-18T19:01:06.857Z,2.53
2022-10-18T19:03:33.892Z,2.33
2022-10-18T19:06:06.226Z,2.10
2022-10-18T19:08:35.558Z,3.03
2022-10-18T19:11:03.654Z,2.10
2022-10-18T19:13:31.817Z,2.40
2022-10-18T19:16:28.141Z,2.27
2022-10-18T19:19:01.426Z,2.20
2022-10-18T19:21:31.096Z,2.23
2022-10-18T19:23:59.605Z,2.10
2022-10-18T19:26:31.965Z,2.33
2022-10-18T19:29:30.668Z,2.50
2022-10-18T19:32:03.410Z,2.17
2022-10-18T19:34:32.472Z,2.37
2022-10-18T19:36:59.402Z,2.57
2022-10-18T19:39:32.190Z,2.80
2022-10-18T19:42:03.114Z,2.47
2022-10-18T19:44:32.366Z,2.63
2022-10-18T19:46:59.773Z,3.03
2022-10-18T19:49:28.608Z,2.80
2022-10-18T19:51:56.577Z,3.07
2022-10-18T19:54:23.829Z,3.10
2022-10-18T19:56:50.974Z,2.97
2022-10-18T19:59:18.894Z,3.20
2022-10-18T20:01:45.885Z,2.93
2022-10-18T20:04:15.050Z,3.17
2022-10-18T20:06:42.509Z,3.47
2022-10-18T20:09:13.391Z,3.47
2022-10-18T20:11:43.360Z,3.50
2022-10-18T20:14:10.820Z,3.40
2022-10-18T20:16:38.071Z,3.57
2022-10-18T20:19:07.485Z,3.60
2022-10-18T20:21:36.188Z,4.00
2022-10-18T20:24:07.043Z,3.57
2022-10-18T20:26:35.836Z,3.80
2022-10-18T20:29:03.580Z,3.67
2022-10-18T20:31:37.141Z,3.87
2022-10-18T20:34:06.696Z,3.60
2022-10-18T20:36:34.759Z,3.97
2022-10-18T20:39:02.430Z,4.97
2022-10-18T20:41:35.515Z,4.17
2022-10-18T20:44:05.391Z,4.30
2022-10-18T20:46:35.215Z,4.70
2022-10-18T20:49:03.082Z,4.63
2022-10-18T20:51:30.252Z,4.97
2022-10-18T20:53:57.283Z,5.03
2022-10-18T20:56:27.127Z,4.87
2022-10-18T20:58:56.445Z,5.03
2022-10-18T21:01:29.587Z,5.00
2022-10-18T21:03:59.679Z,4.70
2022-10-18T21:06:28.106Z,4.93
2022-10-18T21:09:04.487Z,5.60
2022-10-18T21:11:34.729Z,5.30
2022-10-18T21:14:02.799Z,5.27
2022-10-18T21:16:34.547Z,5.23
2022-10-18T21:19:06.889Z,5.63
2022-10-18T21:21:34.474Z,5.63
2022-10-18T21:24:04.062Z,5.67
2022-10-18T21:26:34.347Z,5.90
2022-10-18T21:29:01.285Z,5.77
2022-10-18T21:31:30.373Z,6.00
2022-10-18T21:34:04.699Z,5.73
2022-10-18T21:36:36.567Z,5.60
2022-10-18T21:39:10.679Z,5.00
2022-10-18T21:41:38.207Z,5.37
2022-10-18T21:44:08.241Z,5.60
2022-10-18T21:46:37.550Z,5.20
2022-10-18T21:49:05.270Z,5.07
2022-10-18T21:51:32.239Z,5.37
2022-10-18T21:53:59.246Z,5.47
2022-10-18T21:56:32.765Z,4.77
2022-10-18T21:59:00.120Z,5.23
2022-10-18T22:01:29.926Z,5.20
2022-10-18T22:03:57.270Z,4.33
2022-10-18T22:06:25.533Z,4.67
2022-10-18T22:08:54.823Z,4.60
2022-10-18T22:11:24.792Z,4.47
2022-10-18T22:13:52.889Z,4.83
2022-10-18T22:16:20.375Z,4.30
2022-10-18T22:18:49.031Z,5.40
2022-10-18T22:21:18.583Z,5.37
2022-10-18T22:23:48.263Z,4.80
2022-10-18T22:26:19.888Z,5.80
2022-10-18T22:28:48.142Z,6.67
2022-10-18T22:31:20.695Z,5.17
2022-10-18T22:33:52.109Z,5.10
2022-10-18T22:36:18.984Z,5.07
2022-10-18T22:38:45.899Z,5.70
2022-10-18T22:41:12.892Z,5.43
2022-10-18T22:43:40.419Z,5.87
2022-10-18T22:46:10.630Z,6.60
2022-10-18T22:48:38.094Z,6.50
2022-10-18T22:51:05.860Z,5.93
2022-10-18T22:53:33.776Z,6.23
2022-10-18T22:56:01.596Z,7.00
2022-10-18T22:58:28.563Z,6.50
2022-10-18T23:01:03.840Z,6.37
2022-10-18T23:03:30.882Z,6.07
2022-10-18T23:05:58.166Z,5.73
2022-10-18T23:08:25.764Z,5.77
2022-10-18T23:10:55.659Z,6.20
2022-10-18T23:13:27.370Z,6.40
2022-10-18T23:16:04.388Z,6.63
2022-10-18T23:18:32.769Z,5.80
2022-10-18T23:21:04.448Z,5.50
2022-10-18T23:23:35.375Z,5.63
2022-10-18T23:26:07.368Z,6.20
2022-10-18T23:28:37.026Z,6.17
2022-10-18T23:31:22.160Z,5.53
2022-10-18T23:33:51.640Z,5.93
2022-10-18T23:36:19.031Z,5.90
2022-10-18T23:38:46.157Z,5.70
2022-10-18T23:41:15.134Z,5.70
2022-10-18T23:43:43.187Z,5.80
2022-10-18T23:46:10.880Z,6.07
2022-10-18T23:48:37.756Z,5.20
2022-10-18T23:51:05.198Z,5.13
2022-10-18T23:53:32.607Z,4.73
2022-10-18T23:56:01.900Z,4.87
2022-10-18T23:58:30.612Z,5.00
